Time;durP1;ratioP1;P1;durP2;ratioP2;P2;SDS_P1;SDS_P2;PMS_P1;PMS_P2;Temp;Humidity;BMP_temperature;BMP_pressure;BME280_temperature;BME280_humidity;BME280_pressure;Samples;Min_cycle;Max_cycle;Signal;HPM_P1;HPM_P2
2022/07/11 00:00:07;;;;;;;1.95;1.85;;;;;;;19.40;52.11;95967.22;5081276;28;20506;-59
2022/07/11 00:02:32;;;;;;;2.45;2.17;;;;;;;19.40;53.14;95966.38;5085935;28;20020;-59
2022/07/11 00:04:58;;;;;;;3.10;1.70;;;;;;;19.33;53.50;95959.16;5079717;28;20890;-59
2022/07/11 00:07:23;;;;;;;2.00;1.88;;;;;;;19.27;53.82;95953.75;5079992;28;20077;-59
2022/07/11 00:09:48;;;;;;;3.80;2.08;;;;;;;19.23;53.30;95961.31;5085453;28;20064;-59
2022/07/11 00:12:14;;;;;;;2.10;1.90;;;;;;;19.21;53.64;95965.19;5085991;28;20028;-59
2022/07/11 00:14:40;;;;;;;2.03;1.83;;;;;;;19.18;53.57;95959.22;5089574;28;20073;-59
2022/07/11 00:17:08;;;;;;;2.17;2.08;;;;;;;19.12;53.89;95964.47;5082896;28;20104;-59
2022/07/11 00:19:34;;;;;;;2.20;2.10;;;;;;;19.07;54.41;95969.56;5080575;28;20024;-59
2022/07/11 00:22:00;;;;;;;2.08;1.98;;;;;;;18.97;54.78;95964.50;5083038;28;20024;-59
2022/07/11 00:24:26;;;;;;;3.08;2.10;;;;;;;18.88;54.93;95964.59;5077706;28;20020;-59
2022/07/11 00:26:52;;;;;;;6.10;1.98;;;;;;;18.82;55.24;95967.19;5079270;28;20565;-59
2022/07/11 00:29:17;;;;;;;1.83;1.73;;;;;;;18.73;55.89;95961.16;5080031;28;20028;-58
2022/07/11 00:31:43;;;;;;;2.10;2.00;;;;;;;18.64;56.50;95965.75;5085297;28;20020;-59
2022/07/11 00:34:09;;;;;;;2.50;2.30;;;;;;;18.49;57.32;95971.09;5076372;28;20123;-59
2022/07/11 00:36:34;;;;;;;3.60;2.50;;;;;;;18.44;57.35;95970.81;5079215;28;20115;-59
2022/07/11 00:39:00;;;;;;;3.28;2.00;;;;;;;18.32;57.78;95971.28;5079786;28;20026;-59
2022/07/11 00:41:26;;;;;;;2.13;2.03;;;;;;;18.29;57.53;95970.81;5074217;28;20086;-59
2022/07/11 00:43:58;;;;;;;2.72;2.10;;;;;;;18.18;58.57;95977.44;5082753;28;20013;-59
2022/07/11 00:46:25;;;;;;;2.30;2.20;;;;;;;18.02;60.67;95971.28;5080169;28;20028;-59
2022/07/11 00:48:51;;;;;;;2.20;2.00;;;;;;;17.93;59.93;95971.50;5081223;28;20035;-59
2022/07/11 00:51:23;;;;;;;2.05;1.95;;;;;;;17.91;59.57;95971.69;5077973;28;20029;-59
2022/07/11 00:53:51;;;;;;;4.65;2.00;;;;;;;17.81;60.10;95979.91;5085066;28;20043;-59
2022/07/11 00:56:19;;;;;;;2.05;1.92;;;;;;;17.74;59.85;95974.47;5089060;28;20132;-59
2022/07/11 00:58:44;;;;;;;3.92;2.00;;;;;;;17.75;59.52;95976.13;5081950;28;20041;-59
2022/07/11 01:01:10;;;;;;;2.50;2.20;;;;;;;17.65;59.80;95975.56;5085048;28;20483;-59
2022/07/11 01:03:39;;;;;;;1.90;1.80;;;;;;;17.60;59.42;95975.28;5079897;28;20105;-59
2022/07/11 01:06:06;;;;;;;4.53;2.25;;;;;;;17.52;60.71;95970.00;5082833;28;20035;-59
2022/07/11 01:08:32;;;;;;;1.85;1.70;;;;;;;17.50;60.85;95972.03;5088339;28;20032;-59
2022/07/11 01:11:12;;;;;;;2.40;1.90;;;;;;;17.37;61.50;95967.31;5081758;28;20401;-59
2022/07/11 01:13:38;;;;;;;3.15;1.80;;;;;;;17.32;60.87;95966.00;5083584;28;20031;-59
2022/07/11 01:16:10;;;;;;;2.15;1.85;;;;;;;17.28;62.18;95966.53;5082817;28;20020;-59
2022/07/11 01:18:36;;;;;;;2.42;2.28;;;;;;;17.24;62.01;95962.59;5078745;28;20519;-59
2022/07/11 01:21:06;;;;;;;2.00;1.90;;;;;;;17.18;62.15;95969.44;5084398;28;20028;-59
2022/07/11 01:23:31;;;;;;;3.60;1.80;;;;;;;17.20;61.54;95959.44;5088987;28;20457;-59
2022/07/11 01:25:57;;;;;;;1.95;1.85;;;;;;;17.30;61.14;95964.53;5082419;28;20028;-59
2022/07/11 01:28:22;;;;;;;2.17;1.98;;;;;;;17.28;61.26;95966.53;5074933;28;20451;-59
2022/07/11 01:30:47;;;;;;;2.10;2.00;;;;;;;17.15;61.61;95970.63;5077616;28;20021;-59
2022/07/11 01:33:13;;;;;;;2.00;1.90;;;;;;;17.08;62.72;95974.97;5085788;28;20020;-59
2022/07/11 01:35:38;;;;;;;2.05;1.95;;;;;;;17.01;63.93;95976.69;5080674;28;20528;-59
2022/07/11 01:38:03;;;;;;;2.40;2.20;;;;;;;16.96;63.69;95981.69;5077259;28;20032;-59
2022/07/11 01:40:29;;;;;;;2.30;2.20;;;;;;;16.95;64.09;95975.53;5087022;28;20025;-59
2022/07/11 01:42:55;;;;;;;2.33;2.20;;;;;;;16.93;63.79;95982.84;5080553;28;20514;-60
2022/07/11 01:45:20;;;;;;;2.40;2.30;;;;;;;16.92;64.56;95983.84;5084294;28;20028;-59
2022/07/11 01:47:45;;;;;;;2.10;2.00;;;;;;;16.89;64.36;95993.00;5080333;28;20020;-59
2022/07/11 01:50:11;;;;;;;2.33;2.20;;;;;;;16.81;65.51;95985.06;5078901;28;20028;-59
2022/07/11 01:52:36;;;;;;;1.98;1.88;;;;;;;16.71;66.41;95984.47;5080929;28;20475;-59
2022/07/11 01:55:01;;;;;;;2.38;2.17;;;;;;;16.61;66.16;95984.69;5079827;28;20028;-59
2022/07/11 01:57:27;;;;;;;2.60;2.03;;;;;;;16.57;66.63;95989.50;5093024;28;20048;-59
2022/07/11 01:59:52;;;;;;;2.05;1.95;;;;;;;16.55;66.03;95995.97;5082357;28;20047;-59
2022/07/11 02:02:18;;;;;;;4.10;2.10;;;;;;;16.53;65.94;95990.84;5078432;28;20028;-59
2022/07/11 02:04:43;;;;;;;3.95;2.13;;;;;;;16.46;66.67;95987.22;5084975;28;20031;-59
2022/07/11 02:07:11;;;;;;;2.10;2.00;;;;;;;16.50;65.98;95985.03;5082495;28;20107;-59
2022/07/11 02:09:37;;;;;;;6.13;2.22;;;;;;;16.49;66.45;95986.88;5088752;28;20489;-59
2022/07/11 02:12:03;;;;;;;2.38;2.00;;;;;;;16.50;66.09;95985.03;5087908;28;20024;-59
2022/07/11 02:14:28;;;;;;;2.10;2.00;;;;;;;16.47;66.52;95980.91;5074924;28;20024;-59
2022/07/11 02:16:54;;;;;;;6.85;2.13;;;;;;;16.45;66.51;95988.22;5085376;28;20107;-59
2022/07/11 02:19:19;;;;;;;3.00;2.60;;;;;;;16.43;67.30;95979.59;5089992;28;20028;-59
2022/07/11 02:21:44;;;;;;;2.30;2.10;;;;;;;16.42;66.83;95988.56;5090731;28;20044;-59
2022/07/11 02:24:10;;;;;;;2.50;2.40;;;;;;;16.42;66.43;95983.25;5085142;28;20028;-59
2022/07/11 02:26:35;;;;;;;2.30;2.10;;;;;;;16.35;68.02;95987.59;5084186;28;20077;-59
2022/07/11 02:29:01;;;;;;;2.30;2.17;;;;;;;16.28;68.05;95988.28;5080828;28;20051;-59
2022/07/11 02:31:26;;;;;;;2.33;2.17;;;;;;;16.20;67.91;95982.97;5076546;28;20523;-59
2022/07/11 02:33:51;;;;;;;3.13;2.40;;;;;;;16.20;69.47;95980.31;5082220;28;20084;-59
2022/07/11 02:36:17;;;;;;;2.20;2.05;;;;;;;16.14;67.76;95986.31;5078093;28;20058;-59
2022/07/11 02:38:42;;;;;;;1.95;1.85;;;;;;;16.17;67.41;95983.31;5078362;28;20104;-59
2022/07/11 02:41:08;;;;;;;2.00;1.90;;;;;;;16.16;67.28;95981.66;5075886;28;20031;-59
2022/07/11 02:43:34;;;;;;;2.10;1.90;;;;;;;16.04;68.03;95983.84;5084644;28;20043;-60
2022/07/11 02:45:59;;;;;;;2.38;2.20;;;;;;;15.98;68.34;95973.91;5075096;28;20039;-59
2022/07/11 02:48:24;;;;;;;2.30;2.20;;;;;;;15.95;68.00;95979.56;5087182;28;20475;-59
2022/07/11 02:50:51;;;;;;;2.70;2.50;;;;;;;15.98;68.14;95976.56;5082849;28;20023;-59
2022/07/11 02:53:16;;;;;;;2.33;2.13;;;;;;;15.96;68.17;95973.25;5084758;28;20032;-59
2022/07/11 02:55:41;;;;;;;3.35;2.30;;;;;;;15.92;68.96;95975.41;5078334;28;20164;-59
2022/07/11 02:58:07;;;;;;;2.90;2.50;;;;;;;15.87;69.73;95975.88;5075588;28;20045;-59
2022/07/11 03:00:32;;;;;;;2.70;2.50;;;;;;;15.76;69.79;95977.03;5080435;28;20020;-59
2022/07/11 03:02:58;;;;;;;4.32;2.92;;;;;;;15.72;69.23;95962.47;5083630;28;20058;-59
2022/07/11 03:05:23;;;;;;;2.65;2.45;;;;;;;15.72;69.43;95970.41;5080127;28;20034;-59
2022/07/11 03:07:49;;;;;;;2.60;2.40;;;;;;;15.71;70.29;95968.75;5083443;28;20375;-59
2022/07/11 03:10:15;;;;;;;2.25;2.15;;;;;;;15.71;69.39;95973.25;5062668;28;20037;-59
2022/07/11 03:12:41;;;;;;;2.40;2.20;;;;;;;15.78;68.88;95973.38;5082668;28;20061;-59
2022/07/11 03:15:07;;;;;;;3.20;2.20;;;;;;;15.80;68.03;95966.09;5092235;28;20024;-59
2022/07/11 03:17:32;;;;;;;2.30;2.10;;;;;;;15.88;67.65;95979.38;5084465;28;20736;-59
2022/07/11 03:19:58;;;;;;;2.72;2.40;;;;;;;15.89;67.91;95978.41;5086716;28;20042;-59
2022/07/11 03:22:23;;;;;;;2.33;2.17;;;;;;;15.74;69.64;95973.72;5081736;28;20028;-59
2022/07/11 03:24:50;;;;;;;3.75;2.70;;;;;;;15.62;71.12;95985.69;5089911;28;20024;-59
2022/07/11 03:27:16;;;;;;;2.17;2.08;;;;;;;15.60;71.71;95982.38;5084598;28;20036;-59
2022/07/11 03:29:41;;;;;;;3.35;2.40;;;;;;;15.58;72.67;95973.72;5088505;28;20104;-59
2022/07/11 03:32:07;;;;;;;2.45;2.25;;;;;;;15.56;71.50;95983.69;5092838;28;20027;-59
2022/07/11 03:34:32;;;;;;;2.50;2.40;;;;;;;15.59;70.85;95984.19;5094847;28;20038;-59
2022/07/11 03:36:58;;;;;;;2.58;2.38;;;;;;;15.52;71.55;95985.03;5086287;28;20028;-59
2022/07/11 03:39:23;;;;;;;2.10;2.00;;;;;;;15.44;72.49;95988.50;5079153;28;20199;-59
2022/07/11 03:41:49;;;;;;;2.80;2.60;;;;;;;15.43;71.90;95987.69;5081827;28;20483;-59
2022/07/11 03:44:14;;;;;;;2.42;2.30;;;;;;;15.49;71.53;95988.00;5088440;28;20106;-59
2022/07/11 03:46:39;;;;;;;2.47;2.28;;;;;;;15.53;71.72;95982.22;5075996;28;20024;-60
2022/07/11 03:49:05;;;;;;;2.47;2.38;;;;;;;15.58;70.71;95994.97;5085150;28;20040;-60
2022/07/11 03:51:30;;;;;;;2.50;2.33;;;;;;;15.52;70.91;95995.63;5089668;28;20471;-59
2022/07/11 03:53:56;;;;;;;5.30;2.20;;;;;;;15.42;71.09;95993.97;5087183;28;20032;-59
2022/07/11 03:56:22;;;;;;;4.85;2.63;;;;;;;15.40;72.37;95992.47;5082902;28;20032;-60
2022/07/11 03:58:49;;;;;;;2.53;2.33;;;;;;;15.41;71.51;95994.97;5087233;28;20155;-59
2022/07/11 04:01:15;;;;;;;2.67;2.47;;;;;;;15.42;72.04;95993.13;5078765;28;20035;-59
2022/07/11 04:03:40;;;;;;;2.80;2.60;;;;;;;15.36;72.28;95997.28;5078270;28;20060;-59
2022/07/11 04:06:05;;;;;;;2.45;2.25;;;;;;;15.29;72.75;95989.16;5084176;28;20078;-59
2022/07/11 04:08:31;;;;;;;3.58;3.33;;;;;;;15.29;72.53;95989.16;5073001;28;20032;-59
2022/07/11 04:10:56;;;;;;;5.03;3.05;;;;;;;15.31;72.70;95995.13;5086243;28;20024;-59
2022/07/11 04:13:21;;;;;;;3.10;2.90;;;;;;;15.33;72.99;95997.59;5077895;28;20067;-59
2022/07/11 04:15:47;;;;;;;2.90;2.78;;;;;;;15.24;74.06;95996.75;5085221;28;20036;-59
2022/07/11 04:18:12;;;;;;;2.60;2.40;;;;;;;15.24;73.04;95994.09;5089850;28;20027;-59
2022/07/11 04:20:37;;;;;;;4.90;2.97;;;;;;;15.25;73.19;95997.59;5073378;28;20070;-59
2022/07/11 04:23:03;;;;;;;2.45;2.25;;;;;;;15.24;73.03;95988.81;5078726;28;20044;-59
2022/07/11 04:25:28;;;;;;;2.70;2.50;;;;;;;15.16;73.67;95994.94;5084450;28;20043;-59
2022/07/11 04:27:54;;;;;;;5.82;2.63;;;;;;;15.10;74.17;95998.22;5089022;28;20032;-59
2022/07/11 04:30:19;;;;;;;7.53;2.55;;;;;;;15.11;73.35;95997.25;5079070;28;20063;-59
2022/07/11 04:32:44;;;;;;;3.00;2.80;;;;;;;15.14;72.87;96004.06;5090398;28;20030;-58
2022/07/11 04:35:10;;;;;;;2.60;2.50;;;;;;;15.15;73.56;96006.56;5099937;28;20056;-59
2022/07/11 04:37:35;;;;;;;2.83;2.63;;;;;;;15.13;73.68;96007.69;5080554;28;20021;-59
2022/07/11 04:40:00;;;;;;;5.45;2.60;;;;;;;15.11;74.00;96009.69;5085550;28;20479;-59
2022/07/11 04:42:26;;;;;;;5.13;2.90;;;;;;;15.16;74.15;96007.38;5083749;28;20052;-58
2022/07/11 04:44:51;;;;;;;5.35;2.90;;;;;;;15.22;74.42;96016.50;5085451;28;20043;-59
2022/07/11 04:47:16;;;;;;;9.25;2.67;;;;;;;15.14;74.35;96020.81;5081781;28;20035;-59
2022/07/11 04:49:46;;;;;;;2.70;2.60;;;;;;;15.11;74.06;96021.09;5078308;28;20024;-59
2022/07/11 04:52:12;;;;;;;2.85;2.65;;;;;;;15.20;73.27;96021.13;5090003;28;20044;-59
2022/07/11 04:54:37;;;;;;;4.50;2.47;;;;;;;15.16;73.66;96028.59;5090485;28;20403;-59
2022/07/11 04:57:03;;;;;;;2.75;2.60;;;;;;;15.10;74.27;96032.69;5077761;28;20048;-59
2022/07/11 04:59:28;;;;;;;3.45;2.47;;;;;;;15.08;75.03;96020.63;5074424;28;20035;-59
2022/07/11 05:01:53;;;;;;;2.40;2.30;;;;;;;15.08;75.06;96024.09;5083196;28;20032;-59
2022/07/11 05:04:19;;;;;;;2.67;2.40;;;;;;;15.06;75.80;96023.41;5083537;28;20036;-59
2022/07/11 05:06:44;;;;;;;3.90;2.58;;;;;;;15.02;76.03;96030.03;5082452;28;20024;-59
2022/07/11 05:09:10;;;;;;;3.13;2.88;;;;;;;15.03;76.01;96031.69;5082114;28;20028;-58
2022/07/11 05:11:36;;;;;;;2.63;2.42;;;;;;;15.09;75.62;96035.53;5084974;28;20078;-59
2022/07/11 05:14:01;;;;;;;2.33;2.22;;;;;;;15.16;75.93;96040.03;5085701;28;20032;-60
2022/07/11 05:16:27;;;;;;;4.82;2.95;;;;;;;15.28;75.21;96037.91;5083871;28;20024;-59
2022/07/11 05:18:52;;;;;;;2.97;2.38;;;;;;;15.43;74.90;96039.91;5090192;28;20055;-59
2022/07/11 05:21:22;;;;;;;3.60;3.13;;;;;;;15.55;74.70;96043.91;5080088;28;20036;-59
2022/07/11 05:23:48;;;;;;;2.95;2.63;;;;;;;15.69;73.98;96045.06;5077865;28;20032;-59
2022/07/11 05:26:14;;;;;;;4.80;2.63;;;;;;;15.81;73.12;96034.94;5077129;28;20544;-59
2022/07/11 05:28:40;;;;;;;2.70;2.50;;;;;;;15.87;72.65;96039.59;5078447;28;20039;-59
2022/07/11 05:31:05;;;;;;;3.60;2.80;;;;;;;15.97;71.46;96043.94;5086610;28;20483;-59
2022/07/11 05:33:31;;;;;;;2.60;2.40;;;;;;;16.08;70.83;96038.28;5084533;28;20024;-59
2022/07/11 05:35:56;;;;;;;2.67;2.47;;;;;;;16.19;70.83;96042.41;5072240;28;20479;-59
2022/07/11 05:38:22;;;;;;;3.17;2.88;;;;;;;16.28;70.51;96041.41;5082043;28;20024;-59
2022/07/11 05:40:47;;;;;;;2.42;2.33;;;;;;;16.40;70.76;96043.69;5080417;28;20020;-59
2022/07/11 05:43:13;;;;;;;2.53;2.35;;;;;;;16.51;69.97;96046.00;5083249;28;20059;-59
2022/07/11 05:45:38;;;;;;;4.07;2.70;;;;;;;16.68;69.15;96038.81;5073912;28;20048;-59
2022/07/11 05:48:04;;;;;;;5.10;2.95;;;;;;;16.87;67.21;96048.19;5081866;28;20028;-61
2022/07/11 05:50:29;;;;;;;2.85;2.38;;;;;;;16.95;68.24;96039.34;5080243;28;20394;-60
2022/07/11 05:52:57;;;;;;;6.03;2.45;;;;;;;17.00;67.39;96046.84;5079709;28;20048;-60
2022/07/11 05:55:22;;;;;;;2.60;2.40;;;;;;;17.14;65.81;96038.13;5079704;28;20037;-60
2022/07/11 05:57:48;;;;;;;5.65;2.30;;;;;;;17.30;64.87;96042.53;5088306;28;20058;-61
2022/07/11 06:00:13;;;;;;;3.17;2.30;;;;;;;17.39;64.81;96042.47;5082581;28;20089;-59
2022/07/11 06:02:39;;;;;;;5.13;2.20;;;;;;;17.50;64.10;96047.41;5089896;28;20015;-61
2022/07/11 06:05:04;;;;;;;6.15;2.30;;;;;;;17.59;63.75;96056.16;5092076;28;20030;-60
2022/07/11 06:10:15;;;;;;;2.40;2.22;;;;;;;17.74;63.21;96048.22;5086259;28;20445;-59
2022/07/11 06:12:41;;;;;;;2.15;2.05;;;;;;;17.83;63.58;96041.81;5078500;28;20028;-60
2022/07/11 06:15:07;;;;;;;2.22;1.98;;;;;;;17.88;62.84;96050.09;5081241;28;20032;-60
2022/07/11 06:17:32;;;;;;;3.83;2.05;;;;;;;18.01;62.58;96052.16;5075457;28;20093;-60
2022/07/11 06:19:58;;;;;;;2.13;2.00;;;;;;;18.13;62.43;96049.09;5095357;28;20032;-60
2022/07/11 06:22:23;;;;;;;3.92;1.90;;;;;;;18.32;61.64;96051.25;5077482;28;20537;-59
2022/07/11 06:24:48;;;;;;;2.00;1.90;;;;;;;18.44;60.07;96050.78;5077964;28;20115;-60
2022/07/11 06:27:14;;;;;;;4.30;2.03;;;;;;;18.63;59.10;96057.41;5091389;28;20032;-59
2022/07/11 06:29:40;;;;;;;3.15;2.00;;;;;;;18.78;57.98;96057.41;5085675;28;20028;-59
2022/07/11 06:32:06;;;;;;;1.77;1.67;;;;;;;18.94;57.53;96061.72;5079987;28;20031;-59
2022/07/11 06:34:31;;;;;;;3.30;2.20;;;;;;;19.16;56.88;96051.97;5079343;28;20435;-59
2022/07/11 06:36:57;;;;;;;7.93;2.03;;;;;;;19.33;56.29;96057.91;5079655;28;20092;-59
2022/07/11 06:39:22;;;;;;;2.08;1.73;;;;;;;19.67;55.08;96055.59;5078366;28;20036;-59
2022/07/11 06:41:49;;;;;;;1.70;1.60;;;;;;;19.89;53.84;96055.59;5076324;28;20021;-60
2022/07/11 06:44:14;;;;;;;1.95;1.75;;;;;;;20.25;52.86;96064.53;5078839;28;20032;-60
2022/07/11 06:46:40;;;;;;;3.72;2.13;;;;;;;20.52;51.77;96062.88;5088339;28;20031;-59
2022/07/11 06:49:06;;;;;;;3.42;1.83;;;;;;;20.84;51.29;96063.31;5080503;28;20471;-59
2022/07/11 06:51:32;;;;;;;1.80;1.60;;;;;;;21.27;49.37;96061.44;5076198;28;20098;-59
2022/07/11 06:53:57;;;;;;;1.45;1.35;;;;;;;21.46;49.06;96057.19;5087839;28;20028;-59
2022/07/11 06:56:22;;;;;;;1.83;1.60;;;;;;;21.71;47.63;96059.31;5087154;28;20028;-59
2022/07/11 06:58:48;;;;;;;1.70;1.60;;;;;;;21.94;46.67;96061.59;5082346;28;20068;-60
2022/07/11 07:01:13;;;;;;;4.20;1.65;;;;;;;22.26;46.96;96061.84;5076608;28;20047;-59
2022/07/11 07:03:38;;;;;;;3.45;1.38;;;;;;;22.69;46.09;96054.38;5083564;28;20023;-59
2022/07/11 07:06:05;;;;;;;3.38;1.80;;;;;;;22.75;45.20;96053.53;5089992;28;20410;-60
2022/07/11 07:08:31;;;;;;;1.90;1.63;;;;;;;23.01;44.04;96055.31;5083098;28;20103;-60
2022/07/11 07:10:57;;;;;;;5.00;1.70;;;;;;;23.27;44.03;96061.66;5086984;28;20103;-60
2022/07/11 07:13:28;;;;;;;1.73;1.50;;;;;;;23.45;43.83;96054.75;5086552;28;20575;-59
2022/07/11 07:15:54;;;;;;;5.38;1.50;;;;;;;23.75;42.35;96062.22;5088536;28;20089;-60
2022/07/11 07:18:20;;;;;;;1.48;1.40;;;;;;;23.86;42.16;96058.03;5090802;28;20028;-59
2022/07/11 07:20:45;;;;;;;3.38;1.65;;;;;;;23.92;41.25;96059.03;5086014;28;20116;-60
2022/07/11 07:23:11;;;;;;;2.88;1.80;;;;;;;24.35;41.19;96061.00;5078869;28;20420;-60
2022/07/11 07:25:37;;;;;;;3.03;1.70;;;;;;;24.41;39.89;96057.41;5077494;28;20043;-60
2022/07/11 07:28:03;;;;;;;1.35;1.25;;;;;;;24.34;40.37;96050.44;5083129;28;20033;-59
2022/07/11 07:30:29;;;;;;;1.55;1.45;;;;;;;24.63;39.91;96050.78;5084460;28;20024;-60
2022/07/11 07:32:54;;;;;;;1.90;1.52;;;;;;;24.96;40.02;96055.84;5086208;28;20097;-59
2022/07/11 07:35:19;;;;;;;1.88;1.33;;;;;;;25.28;38.26;96054.84;5085579;28;20032;-59
2022/07/11 07:37:45;;;;;;;1.50;1.40;;;;;;;25.29;39.22;96051.09;5080487;28;20487;-59
2022/07/11 07:40:10;;;;;;;1.58;1.48;;;;;;;25.40;38.62;96052.19;5088754;28;20074;-59
2022/07/11 07:42:36;;;;;;;3.10;1.70;;;;;;;25.49;37.71;96052.75;5083682;28;20016;-59
2022/07/11 07:45:01;;;;;;;1.20;1.20;;;;;;;25.76;36.79;96049.69;5080760;28;20020;-60
2022/07/11 07:47:28;;;;;;;1.67;1.58;;;;;;;26.02;37.21;96048.44;5094112;28;20052;-59
2022/07/11 07:49:53;;;;;;;1.58;1.23;;;;;;;26.11;37.81;96044.38;5091379;28;20012;-59
2022/07/11 07:52:18;;;;;;;2.50;1.55;;;;;;;26.35;37.25;96046.28;5091855;28;20077;-59
2022/07/11 07:54:44;;;;;;;2.30;1.48;;;;;;;26.54;36.69;96039.72;5082492;28;20502;-59
2022/07/11 07:57:09;;;;;;;1.65;1.50;;;;;;;26.61;35.17;96045.00;5084100;28;20135;-59
2022/07/11 07:59:34;;;;;;;1.98;1.30;;;;;;;26.46;36.52;96040.09;5076276;28;20041;-60
2022/07/11 08:02:00;;;;;;;1.73;1.42;;;;;;;26.74;35.26;96041.25;5082641;28;20063;-62
2022/07/11 08:04:25;;;;;;;5.72;1.77;;;;;;;26.86;35.51;96039.38;5080393;28;20040;-61
2022/07/11 08:06:51;;;;;;;1.70;1.60;;;;;;;27.05;34.69;96035.72;5078301;28;20762;-61
2022/07/11 08:09:16;;;;;;;2.90;1.60;;;;;;;26.84;34.93;96033.34;5088325;28;20036;-62
2022/07/11 08:11:42;;;;;;;4.38;1.75;;;;;;;27.13;35.22;96024.50;5082298;28;20060;-62
2022/07/11 08:14:07;;;;;;;1.73;1.42;;;;;;;27.50;34.73;96031.44;5080732;28;20381;-61
2022/07/11 08:16:33;;;;;;;1.40;1.30;;;;;;;27.40;34.59;96024.78;5088200;28;20109;-63
2022/07/11 08:19:00;;;;;;;4.05;1.30;;;;;;;27.73;34.28;96020.53;5084689;28;20486;-63
2022/07/11 08:21:26;;;;;;;6.22;1.95;;;;;;;27.90;33.96;96022.44;5084306;28;20112;-62
2022/07/11 08:23:51;;;;;;;1.50;1.40;;;;;;;27.52;35.23;96015.81;5086020;28;20112;-61
2022/07/11 08:26:16;;;;;;;2.17;1.60;;;;;;;27.40;34.77;96008.56;5087791;28;20032;-60
2022/07/11 08:28:42;;;;;;;2.67;1.58;;;;;;;27.63;34.31;96014.13;5076218;28;20020;-61
2022/07/11 08:31:08;;;;;;;1.98;1.40;;;;;;;27.40;35.78;96007.72;5087559;28;20449;-61
2022/07/11 08:33:33;;;;;;;2.72;1.45;;;;;;;27.58;36.22;96007.56;5082195;28;20043;-60
2022/07/11 08:35:58;;;;;;;1.83;1.60;;;;;;;28.00;34.57;96003.69;5082610;28;20064;-60
2022/07/11 08:38:24;;;;;;;2.03;1.60;;;;;;;27.86;34.54;96005.91;5087836;28;20028;-60
2022/07/11 08:40:50;;;;;;;1.63;1.52;;;;;;;27.94;34.14;96006.56;5088148;28;20031;-60
2022/07/11 08:43:18;;;;;;;2.90;1.60;;;;;;;28.07;33.56;95997.28;5092081;28;20016;-60
2022/07/11 08:45:44;;;;;;;1.30;1.30;;;;;;;27.78;34.59;95997.38;5085012;28;20025;-60
2022/07/11 08:48:10;;;;;;;4.57;2.30;;;;;;;28.05;34.19;95994.00;5094058;28;20024;-60
2022/07/11 08:50:36;;;;;;;2.28;1.40;;;;;;;28.46;33.34;95994.66;5091357;28;20023;-60
2022/07/11 08:53:05;;;;;;;3.50;1.92;;;;;;;28.42;32.96;95993.53;5074334;28;20035;-60
2022/07/11 08:55:31;;;;;;;2.28;2.17;;;;;;;28.79;32.49;95987.53;5077209;28;20033;-60
2022/07/11 08:57:58;;;;;;;2.25;2.08;;;;;;;28.65;33.64;95988.97;5077602;28;20040;-60
2022/07/11 09:00:23;;;;;;;2.08;1.88;;;;;;;28.94;32.73;95983.38;5079205;28;20440;-60
2022/07/11 09:02:49;;;;;;;1.88;1.35;;;;;;;29.10;31.83;95987.94;5079369;28;20055;-60
2022/07/11 09:05:15;;;;;;;3.50;1.70;;;;;;;29.12;32.20;95983.06;5058602;28;20028;-60
2022/07/11 09:07:46;;;;;;;3.15;1.92;;;;;;;28.66;33.26;95977.88;5084020;28;20022;-60
2022/07/11 09:10:12;;;;;;;1.95;1.40;;;;;;;29.01;32.09;95979.44;5082959;28;20032;-60
2022/07/11 09:12:39;;;;;;;3.00;1.75;;;;;;;29.30;32.62;95970.25;5073952;28;20024;-60
2022/07/11 09:15:05;;;;;;;4.90;2.47;;;;;;;29.25;32.71;95976.44;5080296;28;20020;-60
2022/07/11 09:17:31;;;;;;;3.55;1.88;;;;;;;29.70;32.70;95969.03;5085210;28;20036;-60
2022/07/11 09:19:56;;;;;;;6.32;4.00;;;;;;;29.72;32.41;95966.06;5097012;28;20106;-60
2022/07/11 09:25:22;;;;;;;5.75;1.40;;;;;;;29.95;31.52;95962.16;5071051;28;20618;-60
2022/07/11 09:28:08;;;;;;;1.83;1.50;;;;;;;30.08;31.08;95965.56;5077667;28;20033;-60
2022/07/11 09:30:39;;;;;;;1.73;1.60;;;;;;;29.87;32.33;95958.06;5082987;28;20399;-60
2022/07/11 09:33:07;;;;;;;2.40;1.80;;;;;;;30.38;30.98;95953.25;5084257;28;20474;-60
2022/07/11 09:35:37;;;;;;;4.07;1.45;;;;;;;30.11;31.11;95954.19;5083104;28;20112;-60
2022/07/11 09:38:04;;;;;;;1.80;1.60;;;;;;;29.69;31.95;95959.25;5086698;28;20398;-60
2022/07/11 09:40:30;;;;;;;1.60;1.50;;;;;;;29.88;31.21;95946.13;5100451;28;20028;-60
2022/07/11 09:42:57;;;;;;;1.92;1.70;;;;;;;29.51;32.36;95954.19;5088966;28;20436;-60
2022/07/11 09:45:27;;;;;;;1.42;1.23;;;;;;;29.88;32.43;95953.44;5079513;28;20028;-60
2022/07/11 09:47:55;;;;;;;2.45;1.92;;;;;;;30.47;31.43;95948.97;5089861;28;20072;-61
2022/07/11 09:50:22;;;;;;;2.53;1.70;;;;;;;30.74;31.41;95942.63;5086837;28;20114;-60
2022/07/11 09:53:11;;;;;;;4.05;1.90;;;;;;;31.02;29.81;95940.53;5079033;28;20081;-60
2022/07/11 09:55:39;;;;;;;8.02;1.60;;;;;;;31.18;30.12;95948.75;5081273;28;20491;-60
2022/07/11 09:58:06;;;;;;;2.42;1.83;;;;;;;31.23;30.35;95952.34;5080979;28;20041;-60
2022/07/11 10:00:33;;;;;;;1.88;1.50;;;;;;;31.13;30.27;95947.66;5076560;28;20032;-60
2022/07/11 10:03:00;;;;;;;1.60;1.50;;;;;;;31.52;29.29;95948.31;5084579;28;20052;-61
2022/07/11 10:05:25;;;;;;;1.70;1.60;;;;;;;31.49;29.20;95954.25;5077556;28;20024;-60
2022/07/11 10:07:51;;;;;;;2.78;1.40;;;;;;;31.53;28.94;95949.94;5077493;28;20403;-60
2022/07/11 10:10:17;;;;;;;1.50;1.45;;;;;;;31.53;29.47;95958.09;5082601;28;20107;-60
2022/07/11 10:12:46;;;;;;;1.90;1.50;;;;;;;31.89;28.66;95957.34;5073116;28;20016;-60
2022/07/11 10:15:15;;;;;;;1.75;1.60;;;;;;;31.74;28.14;95950.75;5084596;28;20032;-61
2022/07/11 10:17:59;;;;;;;3.83;1.63;;;;;;;31.93;29.02;95956.50;5083317;28;20376;-61
2022/07/11 10:20:37;;;;;;;3.78;1.58;;;;;;;31.89;28.23;95947.25;5083657;28;20040;-60
2022/07/11 10:23:31;;;;;;;4.18;1.58;;;;;;;31.48;29.35;95952.63;5085661;28;20031;-61
2022/07/11 10:26:19;;;;;;;4.63;1.50;;;;;;;31.83;28.65;95953.78;5076214;28;20111;-60
2022/07/11 10:28:53;;;;;;;1.50;1.48;;;;;;;31.77;29.79;95946.72;5083184;28;20023;-60
2022/07/11 10:31:19;;;;;;;;;;;;;;;32.03;28.84;95941.25;5086928;28;20043;-61
2022/07/11 10:34:04;;;;;;;6.55;1.77;;;;;;;32.03;27.76;95946.72;5096806;28;19912;-60
2022/07/11 10:36:33;;;;;;;4.05;1.67;;;;;;;31.90;28.32;95948.88;5083817;28;20043;-60
2022/07/11 10:39:27;;;;;;;1.60;1.50;;;;;;;31.76;29.29;95947.78;5083996;28;20502;-60
2022/07/11 10:41:57;;;;;;;2.17;1.98;;;;;;;31.91;29.25;95933.38;5071820;28;20510;-60
2022/07/11 10:44:24;;;;;;;3.72;1.60;;;;;;;32.14;28.76;95937.41;5086007;28;20033;-61
2022/07/11 10:46:50;;;;;;;2.20;1.70;;;;;;;32.20;29.14;95930.91;5083006;28;20024;-60
2022/07/11 10:49:28;;;;;;;4.00;1.70;;;;;;;32.32;28.46;95930.59;5098325;28;20755;-60
2022/07/11 10:52:04;;;;;;;2.75;1.80;;;;;;;32.15;28.04;95933.59;5083533;28;20019;-60
2022/07/11 10:54:41;;;;;;;1.70;1.60;;;;;;;32.48;27.52;95933.28;5082012;28;20039;-60
2022/07/11 10:57:23;;;;;;;1.75;1.60;;;;;;;32.51;27.81;95927.31;5082499;28;20051;-61
2022/07/11 11:00:10;;;;;;;1.73;1.40;;;;;;;32.35;28.24;95931.97;5078784;28;20029;-60
2022/07/11 11:03:08;;;;;;;8.77;6.50;;;;;;;32.83;27.27;95929.66;5086008;28;20016;-60
2022/07/11 11:05:49;;;;;;;7.85;5.07;;;;;;;32.88;27.43;95922.53;5081928;28;20036;-60
2022/07/11 11:08:35;;;;;;;2.35;1.95;;;;;;;32.70;27.68;95927.50;5077774;28;20037;-60
2022/07/11 11:11:06;;;;;;;6.65;1.73;;;;;;;32.74;27.07;95922.34;5089725;28;20099;-60
2022/07/11 11:13:35;;;;;;;3.85;1.50;;;;;;;32.91;28.28;95924.72;5077415;28;20028;-60
2022/07/11 11:16:02;;;;;;;1.98;1.45;;;;;;;32.52;28.17;95923.50;5088037;28;20027;-60
2022/07/11 11:18:34;;;;;;;2.33;1.40;;;;;;;32.78;28.68;95907.03;5090537;28;20055;-60
2022/07/11 11:21:00;;;;;;;4.82;1.75;;;;;;;33.09;27.49;95924.09;5080983;28;20604;-60
2022/07/11 11:23:34;;;;;;;1.70;1.50;;;;;;;33.06;28.04;95921.09;5084683;28;20020;-60
2022/07/11 11:26:06;;;;;;;3.17;1.40;;;;;;;33.07;27.16;95920.00;5082125;28;20033;-60
2022/07/11 11:28:32;;;;;;;4.20;1.40;;;;;;;33.06;26.89;95921.94;5076012;28;20032;-58
2022/07/11 11:31:00;;;;;;;2.55;1.50;;;;;;;33.27;27.49;95922.63;5079079;28;20041;-58
2022/07/11 11:33:28;;;;;;;2.60;1.63;;;;;;;32.83;27.79;95918.75;5081506;28;20031;-61
2022/07/11 11:36:05;;;;;;;3.05;1.27;;;;;;;32.77;27.24;95908.94;5080043;28;20028;-58
2022/07/11 11:38:35;;;;;;;1.60;1.50;;;;;;;33.10;28.10;95912.09;5082287;28;20503;-60